Station info - map view · info · telemetry · weather · raw · status · beacons · messages · bulletins · browse · moving · my account
Callsign, ship name or locator: Clear       
It is possible to search using wildcards (*?) after a prefix. Example: OH*
APRS station OE3DMB-7 - show graphs
Map loading...
Comment: Andy TH-D72
Mic-E message: Off duty
Location: 48°08.61' N 16°21.50' E - locator JN88ED24XK - show map - static map
4.2 miles Northeast bearing 53° from Brunn am Gebirge, Politischer Bezirk Mödling, Lower Austria, Austria [?]
4.5 miles South bearing 188° from Vienna, Politischer Bezirk Wien (Stadt), Vienna, Austria
4.6 miles East bearing 69° from Perchtoldsdorf, Politischer Bezirk Mödling, Lower Austria, Austria
34.5 miles West bearing 270° from Bratislava, Bratislavský, Slovakia
Last position: 2017-04-27 01:43:55 EDT (2d 7h53m ago)
2017-04-27 07:43:55 CEST local time at Brunn am Gebirge, Austria [?]
Altitude: 725 ft
Course: 112°
Speed: 21 MPH
Device: Kenwood: TH-D72 (ht)
Last path: OE3DMB-7>TXPX61 via OE1XKR-7,WIDE1*,WIDE2-2,qAR,OE3XTR-7 (good)
Positions stored: 69899
Packet rate: 108 seconds between packets on average during 2476 seconds.
Other SSIDs: OE3DMB-11 OE3DMB-5
Stations near current position of OE3DMB-7 - show more
callsign distance last heard - EDT      callsign distance last heard - EDT
OE1IWA-90.5 miles 238°2017-04-21 13:13:56 OE1SSU-90.7 miles 232°2017-04-29 04:52:27
OE1IWA-100.7 miles 233°2017-04-29 09:37:01 OE1IWA-110.7 miles 233°2017-04-29 09:20:54
OE1XKR-100.8 miles 99°2017-04-29 09:20:17 OE1SJS-51.1 miles 21°2017-04-07 03:46:20
OE1VHS1.4 miles 272°2017-04-04 10:18:42 OE1XKR1.5 miles 13°2017-04-28 09:59:45
OE1XKR-71.6 miles 12°2017-04-29 09:36:06 R 1/70 EL1.6 miles 57°2017-04-29 09:14:36
OE3MSU-91.7 miles 212°2017-04-29 08:53:14 A.L.L.S.1.7 miles 211°2017-04-29 09:14:30
OE3OPA-91.7 miles 209°2017-04-29 07:39:21 OE1PYA-91.7 miles 210°2017-04-29 08:26:19
OE1PHS1.8 miles 232°2017-04-20 10:19:09 OE1GKS1.8 miles 281°2017-04-22 06:20:26
OE3VAW1.8 miles 346°2017-04-06 01:45:11 OE1XQU1.8 miles 348°2017-04-29 09:37:39
OE3WTS-91.9 miles 227°2017-04-19 03:59:40 OE1XQR2.1 miles 34°2017-04-29 09:25:37
Stations which heard OE3DMB-7 directly on radio –
callsign pkts first heard - EDT last heard longest (tx => rx) longest at - EDT
OE1XQR 39 2017-04-05 01:26:19 2017-04-21 11:37:35 JN88CC > JN88EE 8.5 miles 53° 2017-04-05 01:32:16
OE6XTR 14 2017-04-04 02:38:04 2017-04-25 11:05:07 JN88DG > JN77VN 53.4 miles 207° 2017-04-05 12:12:02
OE2XHR-11 2 2017-04-05 03:37:00 2017-04-05 03:48:54 JN67VX > JN67MK 49.9 miles 221° 2017-04-05 03:37:00
DL2MAX 1 2017-04-05 04:07:34 2017-04-05 04:07:34 JN67PX > JN67KR 27.9 miles 228° 2017-04-05 04:07:34
OE6XRR 47 2017-04-24 04:12:18 2017-04-25 10:35:54 JN76OX > JN77QC 11.7 miles 42° 2017-04-24 11:16:28
OE3XKR 24 2017-04-05 02:11:29 2017-04-21 11:21:34 JN78VE > JN88EN 39.0 miles 46° 2017-04-05 02:11:29
OE5ERN-10 29 2017-04-05 02:52:48 2017-04-05 10:50:18 JN78IC > JN78DH 24.0 miles 308° 2017-04-05 02:52:48
OE1SSU-10 6 2017-04-05 01:30:49 2017-04-21 11:41:11 JN88EF > JN88DD 8.8 miles 217° 2017-04-21 11:14:12
OE3XXR 6 2017-04-05 03:02:07 2017-04-05 10:37:42 JN78EF > JN78GD 10.0 miles 124° 2017-04-05 03:08:56
OE5XDO-10 3 2017-04-05 09:40:44 2017-04-05 10:05:40 JN68PD > JN68VM 34.7 miles 41° 2017-04-05 09:40:44
OE3XGR 23 2017-04-05 13:34:39 2017-04-25 12:39:09 JN87HT > JN88EN 53.6 miles 350° 2017-04-10 07:54:45
OE6XLR-11 32 2017-04-24 03:37:15 2017-04-25 07:27:47 JN76HW > JN77OI 37.9 miles 40° 2017-04-24 12:05:25
OE6XZG 7 2017-04-24 04:23:46 2017-04-25 10:49:29 JN77WB > JN77RE 22.5 miles 291° 2017-04-25 10:49:29
OE5XIM-10 12 2017-04-05 02:47:12 2017-04-05 10:58:09 JN67TW > JN78DN 50.5 miles 34° 2017-04-05 03:41:02
OE5XGL-10 32 2017-04-05 03:18:45 2017-04-05 10:53:18 JN78IC > JN67VV 45.4 miles 251° 2017-04-05 10:53:18
OE1XDS-10 7 2017-04-05 12:05:04 2017-04-21 11:39:26 JN88EB > JN88EF 11.8 miles 357° 2017-04-21 11:39:26
OE1SSU-12 17 2017-04-05 12:06:13 2017-04-21 11:42:59 JN88EG > JN88DD 10.0 miles 199° 2017-04-21 10:40:40
OE5REO-10 8 2017-04-05 02:56:59 2017-04-05 10:51:47 JN78IC > JN77BV 30.1 miles 242° 2017-04-05 10:51:47
OE1XKR-7 621 2017-04-03 00:55:39 2017-04-27 01:43:55 JN87GT > JN88ED 26.3 miles 338° 2017-04-10 12:15:10
OE1IWA-10 7 2017-04-05 12:14:36 2017-04-21 11:33:02 JN88DG > JN88ED 9.2 miles 174° 2017-04-05 12:14:36
OE1XAR-10 13 2017-04-05 12:18:10 2017-04-21 11:10:50 JN88FE > JN88EH 9.4 miles 337° 2017-04-21 10:20:40
OE2XZR-10 8 2017-04-05 04:06:47 2017-04-05 09:36:16 JN68PC > JN67NT 23.3 miles 200° 2017-04-05 09:36:16
OE3MZC-2 28 2017-04-05 02:01:22 2017-04-05 11:40:29 JN78QE > JN78XE 26.0 miles 90° 2017-04-05 02:26:12
OE3XDA-10 18 2017-04-05 02:28:13 2017-04-05 11:24:14 JN78SE > JN78LA 29.4 miles 251° 2017-04-05 11:24:14
OE5XBL-10 31 2017-04-05 03:47:49 2017-04-05 10:06:57 JN68TE > JN68PC 16.9 miles 248° 2017-04-05 10:06:57
S55UJE-11 40 2017-04-24 11:52:09 2017-04-25 10:23:55 JN77SB > JN76BL 77.6 miles 240° 2017-04-25 10:23:55
OE3REC-11 28 2017-04-23 01:40:35 2017-04-27 01:19:13 JN87CX > JN88HE 22.9 miles 52° 2017-04-24 02:58:36
OE1ACM-12 17 2017-04-05 13:33:13 2017-04-21 11:22:03 JN88EG > JN88FF 5.3 miles 130° 2017-04-21 10:39:25
OE3XTR-7 179 2017-04-03 00:56:58 2017-04-25 12:43:15 JN88GD > JN87AT 32.1 miles 230° 2017-04-18 13:10:52
9A7KXP-1 21 2017-04-24 11:22:54 2017-04-25 07:12:07 JN76FU > JN75XV 97.2 miles 133° 2017-04-25 06:10:20
OE1IWA-11 1 2017-04-21 11:24:08 2017-04-21 11:24:08 JN88ED > JN88ED 1.4 miles 232° 2017-04-21 11:24:08
OE3VBA-10 13 2017-04-05 02:21:07 2017-04-05 11:33:12 JN78VE > JN78RG 17.4 miles 290° 2017-04-05 11:33:12
OE5XAR 5 2017-04-05 04:27:06 2017-04-05 04:40:25 JN68NC > JN68OB 1.4 miles 139° 2017-04-05 04:40:25
OE5EEP-10 12 2017-04-05 03:38:22 2017-04-05 04:01:02 JN67QX > JN67TX 9.9 miles 101° 2017-04-05 04:01:02
OE3RNB-10 2 2017-04-05 11:39:28 2017-04-05 11:41:45 JN78XD > JN88AG 8.1 miles 26° 2017-04-05 11:39:28
OE3XHB-10 37 2017-04-05 02:15:49 2017-04-05 11:23:28 JN78HD > JN78QI 37.3 miles 68° 2017-04-05 10:47:30
OE3BUB-10 28 2017-04-05 12:04:25 2017-04-21 11:09:26 JN88DG > JN88FG 8.3 miles 71° 2017-04-05 12:04:25
OE3PDB-12 3 2017-04-05 11:48:03 2017-04-05 11:52:36 JN88DE > JN88BG 8.0 miles 297° 2017-04-05 11:52:36
OE3PDB-3 13 2017-04-05 11:25:46 2017-04-25 12:41:06 JN78TE > JN88BG 23.4 miles 77° 2017-04-05 11:25:46
OE3XFW-10 11 2017-04-05 01:57:46 2017-04-10 07:33:06 JN88EA > JN78XD 18.8 miles 295° 2017-04-10 07:33:06
OE2XPR 8 2017-04-05 04:17:07 2017-04-05 09:36:44 JN68PC > JN67MW 16.3 miles 226° 2017-04-05 09:36:44
OE3REC-15 14 2017-04-03 01:34:43 2017-04-07 11:55:22 JN88FF > JN77TX 41.6 miles 247° 2017-04-06 12:28:09
OE5XUL-10 17 2017-04-05 03:44:42 2017-04-05 10:10:21 JN67SW > JN68SE 17.0 miles 5° 2017-04-05 03:44:42
OE1XAW 33 2017-04-05 01:22:52 2017-04-21 11:41:47 JN88EA > JN88EE 10.2 miles 2° 2017-04-21 11:41:47
OE8KKK-11 3 2017-04-25 06:50:13 2017-04-25 07:09:53 JN76KW > JN76DM 38.8 miles 223° 2017-04-25 07:09:53
S55YZA-11 29 2017-04-24 11:39:15 2017-04-25 10:23:56 JN77SB > JN76NE 62.7 miles 199° 2017-04-25 10:23:56
OE3GWW-2 2 2017-04-05 11:42:31 2017-04-05 11:43:32 JN88AE > JN88BE 2.8 miles 69° 2017-04-05 11:42:31
OE6XBF-11 37 2017-04-24 11:01:24 2017-04-25 11:01:18 JN76FU > JN76XU 69.5 miles 91° 2017-04-25 06:01:40
OE5XHR-10 3 2017-04-05 03:33:53 2017-04-05 09:53:02 JN68VA > JN68XR 50.9 miles 5° 2017-04-05 03:33:53
OE3XAR-10 14 2017-04-05 02:12:14 2017-04-05 11:22:43 JN78OE > JN78SB 18.6 miles 113° 2017-04-05 11:07:59
OE1XTK 2 2017-04-05 11:47:36 2017-04-05 11:48:55 JN88CE > JN88CF 1.4 miles 324° 2017-04-05 11:48:55
OE3PDB-10 1 2017-04-05 11:48:54 2017-04-05 11:48:54 JN88CE > JN88CE 2.0 miles 279° 2017-04-05 11:48:54
OE5WWO 7 2017-04-05 03:00:05 2017-04-05 10:34:40 JN78GE > JN78DH 14.1 miles 310° 2017-04-05 03:00:05
DL6RBG-11 2 2017-04-05 09:52:36 2017-04-05 10:09:02 JN68UE > JN68QM 29.4 miles 327° 2017-04-05 10:09:02
OE6XAR-1 12 2017-04-24 11:58:04 2017-04-25 07:11:08 JN76KW > JN77EG 32.3 miles 312° 2017-04-25 07:11:08
S59DTB-10 13 2017-04-24 11:01:20 2017-04-25 10:12:44 JN76HW > JN86AO 70.1 miles 107° 2017-04-24 12:21:37
OE8HXK 1 2017-04-25 06:11:22 2017-04-25 06:11:22 JN76FU > JN76DM 25.0 miles 201° 2017-04-25 06:11:22
OE8HSF-11 42 2017-04-24 11:55:42 2017-04-25 06:43:51 JN76FU > JN76GW 6.9 miles 43° 2017-04-25 01:55:14
OE6XG-1 34 2017-04-24 04:13:34 2017-04-25 10:44:15 JN77VC > JN77OD 25.8 miles 275° 2017-04-25 10:44:15
OE5XLM-10 5 2017-04-05 02:46:27 2017-04-05 10:31:53 JN78KD > JN78CH 31.4 miles 290° 2017-04-05 02:46:27
OE3XMC-10 3 2017-04-05 12:11:57 2017-04-21 10:12:20 JN88DG > JN88FD 11.3 miles 140° 2017-04-05 12:11:57
OE3ZK-13 8 2017-04-05 12:23:25 2017-04-21 11:04:24 JN88FE > JN88DH 10.6 miles 320° 2017-04-21 10:23:22
OE5PSO-10 4 2017-04-05 03:19:31 2017-04-05 03:28:34 JN78BD > JN77AW 14.0 miles 204° 2017-04-05 03:19:31
9A1AYZ-11 50 2017-04-24 11:22:51 2017-04-25 07:42:28 JN76FU > JN75TR 94.9 miles 145° 2017-04-25 06:10:07

Only position packets which were originated by the station are shown here. The range statistics show some extra long hops, because some digipeaters do not correctly add themselves to the digipeater path. Please check the raw packets.
About this site
This page shows real-time information collected from the Automatic Position Reporting System Internet network (APRS-IS). APRS is used by amateur (ham) radio operators to transmit real-time position information, weather data, telemetry and messages over the radio. A vehicle equipped with a GPS receiver, a VHF transmitter or HF transceiver and a small computer device called a tracker transmits it's location, speed and course in a small data packet, which is then received by a nearby iGate receiving site which forwards the packet on the Internet. Systems connected to the Internet can send information on the APRS-IS without a radio transmitter, or collect and display information transmitted anywhere in the world.
FAQ · Blog · Discussion group · Linking to aprs.fi · AIS sites · Service status · Database statistics · Advertising on aprs.fi · Technical details · API · Change log · Planned changes · Credits and thanks · Terms Of Service · iPhone/iPad APRS